sensor_id;sensor_type;location;lat;lon;timestamp;P1;durP1;ratioP1;P2;durP2;ratioP2
61200;SDS011;47065;52.898;6.992;2023-05-10T00:02:09;73.63;;;29.08;;
61200;SDS011;47065;52.898;6.992;2023-05-10T00:04:34;63.03;;;27.42;;
61200;SDS011;47065;52.898;6.992;2023-05-10T00:07:00;78.35;;;30.85;;
61200;SDS011;47065;52.898;6.992;2023-05-10T00:09:26;68.90;;;27.92;;
61200;SDS011;47065;52.898;6.992;2023-05-10T00:11:52;84.93;;;31.75;;
61200;SDS011;47065;52.898;6.992;2023-05-10T00:14:18;62.35;;;28.05;;
61200;SDS011;47065;52.898;6.992;2023-05-10T00:16:43;65.72;;;28.13;;
61200;SDS011;47065;52.898;6.992;2023-05-10T00:19:09;58.00;;;25.23;;
61200;SDS011;47065;52.898;6.992;2023-05-10T00:21:35;32.80;;;18.02;;
61200;SDS011;47065;52.898;6.992;2023-05-10T00:24:00;13.93;;;10.25;;
61200;SDS011;47065;52.898;6.992;2023-05-10T00:26:26;9.85;;;8.48;;
61200;SDS011;47065;52.898;6.992;2023-05-10T00:28:51;11.63;;;9.98;;
61200;SDS011;47065;52.898;6.992;2023-05-10T00:31:17;16.98;;;11.65;;
61200;SDS011;47065;52.898;6.992;2023-05-10T00:33:43;12.52;;;10.68;;
61200;SDS011;47065;52.898;6.992;2023-05-10T00:36:08;13.25;;;10.45;;
61200;SDS011;47065;52.898;6.992;2023-05-10T00:38:34;12.25;;;9.88;;
61200;SDS011;47065;52.898;6.992;2023-05-10T00:40:59;14.38;;;10.30;;
61200;SDS011;47065;52.898;6.992;2023-05-10T00:43:25;12.75;;;10.35;;
61200;SDS011;47065;52.898;6.992;2023-05-10T00:45:51;13.90;;;11.40;;
61200;SDS011;47065;52.898;6.992;2023-05-10T00:48:17;19.80;;;13.93;;
61200;SDS011;47065;52.898;6.992;2023-05-10T00:50:43;17.70;;;12.93;;
61200;SDS011;47065;52.898;6.992;2023-05-10T00:53:09;25.00;;;15.07;;
61200;SDS011;47065;52.898;6.992;2023-05-10T00:55:35;17.67;;;13.30;;
61200;SDS011;47065;52.898;6.992;2023-05-10T00:58:02;21.63;;;15.07;;
61200;SDS011;47065;52.898;6.992;2023-05-10T01:00:28;19.08;;;12.82;;
61200;SDS011;47065;52.898;6.992;2023-05-10T01:02:54;20.02;;;14.15;;
61200;SDS011;47065;52.898;6.992;2023-05-10T01:05:20;27.63;;;15.20;;
61200;SDS011;47065;52.898;6.992;2023-05-10T01:07:46;30.00;;;15.40;;
61200;SDS011;47065;52.898;6.992;2023-05-10T01:10:11;19.35;;;13.55;;
61200;SDS011;47065;52.898;6.992;2023-05-10T01:12:38;21.88;;;14.32;;
61200;SDS011;47065;52.898;6.992;2023-05-10T01:15:07;26.65;;;15.40;;
61200;SDS011;47065;52.898;6.992;2023-05-10T01:17:36;25.42;;;15.13;;
61200;SDS011;47065;52.898;6.992;2023-05-10T01:20:04;25.10;;;15.13;;
61200;SDS011;47065;52.898;6.992;2023-05-10T01:38:40;30.70;;;16.92;;
61200;SDS011;47065;52.898;6.992;2023-05-10T01:44:18;23.92;;;14.98;;
61200;SDS011;47065;52.898;6.992;2023-05-10T01:47:05;24.60;;;14.85;;
61200;SDS011;47065;52.898;6.992;2023-05-10T01:49:39;22.52;;;14.25;;
61200;SDS011;47065;52.898;6.992;2023-05-10T01:52:13;26.17;;;14.52;;
61200;SDS011;47065;52.898;6.992;2023-05-10T01:54:43;27.60;;;15.75;;
61200;SDS011;47065;52.898;6.992;2023-05-10T01:57:14;26.35;;;15.65;;
61200;SDS011;47065;52.898;6.992;2023-05-10T01:59:43;24.77;;;15.15;;
61200;SDS011;47065;52.898;6.992;2023-05-10T02:02:13;22.80;;;13.85;;
61200;SDS011;47065;52.898;6.992;2023-05-10T02:04:39;24.38;;;15.50;;
61200;SDS011;47065;52.898;6.992;2023-05-10T02:07:07;25.23;;;14.18;;
61200;SDS011;47065;52.898;6.992;2023-05-10T02:09:34;26.92;;;16.80;;
61200;SDS011;47065;52.898;6.992;2023-05-10T02:12:01;27.52;;;14.60;;
61200;SDS011;47065;52.898;6.992;2023-05-10T02:14:30;24.65;;;14.10;;
61200;SDS011;47065;52.898;6.992;2023-05-10T02:16:59;24.00;;;13.52;;
61200;SDS011;47065;52.898;6.992;2023-05-10T02:19:26;28.25;;;14.35;;
61200;SDS011;47065;52.898;6.992;2023-05-10T02:21:53;22.35;;;13.45;;
61200;SDS011;47065;52.898;6.992;2023-05-10T02:24:21;24.98;;;15.55;;
61200;SDS011;47065;52.898;6.992;2023-05-10T02:26:49;22.67;;;13.65;;
61200;SDS011;47065;52.898;6.992;2023-05-10T02:29:18;22.83;;;13.95;;
61200;SDS011;47065;52.898;6.992;2023-05-10T02:31:45;26.48;;;14.85;;
61200;SDS011;47065;52.898;6.992;2023-05-10T02:34:11;25.35;;;15.32;;
61200;SDS011;47065;52.898;6.992;2023-05-10T02:36:38;23.73;;;15.07;;
61200;SDS011;47065;52.898;6.992;2023-05-10T02:39:06;27.13;;;14.65;;
61200;SDS011;47065;52.898;6.992;2023-05-10T02:41:37;28.38;;;14.45;;
61200;SDS011;47065;52.898;6.992;2023-05-10T02:44:07;23.73;;;15.05;;
61200;SDS011;47065;52.898;6.992;2023-05-10T02:46:34;21.60;;;13.13;;
61200;SDS011;47065;52.898;6.992;2023-05-10T02:49:01;27.58;;;14.55;;
61200;SDS011;47065;52.898;6.992;2023-05-10T02:51:28;25.48;;;14.95;;
61200;SDS011;47065;52.898;6.992;2023-05-10T02:53:57;24.48;;;13.43;;
61200;SDS011;47065;52.898;6.992;2023-05-10T02:56:30;23.38;;;13.40;;
61200;SDS011;47065;52.898;6.992;2023-05-10T02:58:58;23.98;;;13.00;;
61200;SDS011;47065;52.898;6.992;2023-05-10T03:01:24;25.35;;;13.80;;
61200;SDS011;47065;52.898;6.992;2023-05-10T03:03:49;23.48;;;13.15;;
61200;SDS011;47065;52.898;6.992;2023-05-10T03:06:15;24.13;;;13.82;;
61200;SDS011;47065;52.898;6.992;2023-05-10T03:08:41;23.75;;;13.75;;
61200;SDS011;47065;52.898;6.992;2023-05-10T03:11:28;18.98;;;12.13;;
61200;SDS011;47065;52.898;6.992;2023-05-10T03:14:10;22.45;;;13.80;;
61200;SDS011;47065;52.898;6.992;2023-05-10T03:17:00;23.73;;;14.30;;
61200;SDS011;47065;52.898;6.992;2023-05-10T03:19:56;27.00;;;14.70;;
61200;SDS011;47065;52.898;6.992;2023-05-10T03:22:29;20.13;;;13.05;;
61200;SDS011;47065;52.898;6.992;2023-05-10T03:24:59;23.77;;;13.40;;
61200;SDS011;47065;52.898;6.992;2023-05-10T03:27:30;22.48;;;12.45;;
61200;SDS011;47065;52.898;6.992;2023-05-10T03:29:57;23.75;;;13.48;;
61200;SDS011;47065;52.898;6.992;2023-05-10T03:32:23;27.88;;;14.07;;
61200;SDS011;47065;52.898;6.992;2023-05-10T03:34:49;29.98;;;15.18;;
61200;SDS011;47065;52.898;6.992;2023-05-10T03:37:15;25.48;;;13.48;;
61200;SDS011;47065;52.898;6.992;2023-05-10T03:39:40;26.85;;;13.77;;
61200;SDS011;47065;52.898;6.992;2023-05-10T03:42:06;19.25;;;13.43;;
61200;SDS011;47065;52.898;6.992;2023-05-10T03:44:32;22.52;;;13.45;;
61200;SDS011;47065;52.898;6.992;2023-05-10T03:46:58;26.73;;;14.90;;
61200;SDS011;47065;52.898;6.992;2023-05-10T03:49:24;25.27;;;13.90;;
61200;SDS011;47065;52.898;6.992;2023-05-10T03:51:50;25.40;;;13.77;;
61200;SDS011;47065;52.898;6.992;2023-05-10T03:54:15;24.35;;;13.43;;
61200;SDS011;47065;52.898;6.992;2023-05-10T03:56:41;28.58;;;15.93;;
61200;SDS011;47065;52.898;6.992;2023-05-10T03:59:06;24.17;;;14.00;;
61200;SDS011;47065;52.898;6.992;2023-05-10T04:01:34;23.35;;;14.52;;
61200;SDS011;47065;52.898;6.992;2023-05-10T04:03:59;30.33;;;15.18;;
61200;SDS011;47065;52.898;6.992;2023-05-10T04:06:25;28.45;;;14.90;;
61200;SDS011;47065;52.898;6.992;2023-05-10T04:08:51;26.15;;;14.57;;
61200;SDS011;47065;52.898;6.992;2023-05-10T04:11:16;24.80;;;14.82;;
61200;SDS011;47065;52.898;6.992;2023-05-10T04:13:42;24.50;;;15.70;;
61200;SDS011;47065;52.898;6.992;2023-05-10T04:16:08;26.00;;;14.02;;
61200;SDS011;47065;52.898;6.992;2023-05-10T04:18:34;21.25;;;12.52;;
61200;SDS011;47065;52.898;6.992;2023-05-10T04:21:00;24.35;;;14.50;;
61200;SDS011;47065;52.898;6.992;2023-05-10T04:23:26;23.80;;;13.40;;
61200;SDS011;47065;52.898;6.992;2023-05-10T04:25:52;20.08;;;13.45;;
61200;SDS011;47065;52.898;6.992;2023-05-10T04:28:23;21.52;;;12.95;;
61200;SDS011;47065;52.898;6.992;2023-05-10T04:30:49;16.65;;;11.70;;
61200;SDS011;47065;52.898;6.992;2023-05-10T04:33:14;18.02;;;11.73;;
61200;SDS011;47065;52.898;6.992;2023-05-10T04:35:40;20.63;;;12.68;;
61200;SDS011;47065;52.898;6.992;2023-05-10T04:38:06;18.83;;;12.30;;
61200;SDS011;47065;52.898;6.992;2023-05-10T04:40:31;16.48;;;11.50;;
61200;SDS011;47065;52.898;6.992;2023-05-10T04:42:58;18.38;;;11.95;;
61200;SDS011;47065;52.898;6.992;2023-05-10T04:45:23;17.08;;;10.38;;
61200;SDS011;47065;52.898;6.992;2023-05-10T04:47:49;15.70;;;11.30;;
61200;SDS011;47065;52.898;6.992;2023-05-10T04:50:14;15.13;;;9.75;;
61200;SDS011;47065;52.898;6.992;2023-05-10T04:52:40;13.80;;;9.80;;
61200;SDS011;47065;52.898;6.992;2023-05-10T04:55:06;15.00;;;10.43;;
61200;SDS011;47065;52.898;6.992;2023-05-10T04:57:34;12.38;;;9.40;;
61200;SDS011;47065;52.898;6.992;2023-05-10T05:00:00;12.73;;;8.98;;
61200;SDS011;47065;52.898;6.992;2023-05-10T05:02:25;14.98;;;10.57;;
61200;SDS011;47065;52.898;6.992;2023-05-10T05:04:51;12.90;;;9.23;;
61200;SDS011;47065;52.898;6.992;2023-05-10T05:07:16;11.82;;;9.05;;
61200;SDS011;47065;52.898;6.992;2023-05-10T05:09:42;12.52;;;10.65;;
61200;SDS011;47065;52.898;6.992;2023-05-10T05:12:07;13.50;;;9.38;;
61200;SDS011;47065;52.898;6.992;2023-05-10T05:14:38;14.45;;;10.27;;
61200;SDS011;47065;52.898;6.992;2023-05-10T05:17:04;12.13;;;9.50;;
61200;SDS011;47065;52.898;6.992;2023-05-10T05:19:30;13.82;;;9.23;;
61200;SDS011;47065;52.898;6.992;2023-05-10T05:21:56;10.52;;;8.95;;
61200;SDS011;47065;52.898;6.992;2023-05-10T05:24:22;13.90;;;9.27;;
61200;SDS011;47065;52.898;6.992;2023-05-10T05:26:48;12.30;;;8.40;;
61200;SDS011;47065;52.898;6.992;2023-05-10T05:29:13;11.18;;;9.10;;
61200;SDS011;47065;52.898;6.992;2023-05-10T05:31:39;11.10;;;8.77;;
61200;SDS011;47065;52.898;6.992;2023-05-10T05:34:05;13.18;;;8.98;;
61200;SDS011;47065;52.898;6.992;2023-05-10T05:36:30;12.13;;;9.45;;
61200;SDS011;47065;52.898;6.992;2023-05-10T05:38:56;12.13;;;8.70;;
61200;SDS011;47065;52.898;6.992;2023-05-10T05:41:22;14.20;;;9.10;;
61200;SDS011;47065;52.898;6.992;2023-05-10T05:43:49;14.50;;;8.65;;
61200;SDS011;47065;52.898;6.992;2023-05-10T05:46:15;13.48;;;8.80;;
61200;SDS011;47065;52.898;6.992;2023-05-10T05:48:40;13.98;;;9.13;;
61200;SDS011;47065;52.898;6.992;2023-05-10T05:51:06;12.82;;;9.05;;
61200;SDS011;47065;52.898;6.992;2023-05-10T05:53:31;12.73;;;9.38;;
61200;SDS011;47065;52.898;6.992;2023-05-10T05:55:58;14.88;;;10.32;;
61200;SDS011;47065;52.898;6.992;2023-05-10T05:58:24;14.65;;;8.93;;
61200;SDS011;47065;52.898;6.992;2023-05-10T06:00:50;11.73;;;9.18;;
61200;SDS011;47065;52.898;6.992;2023-05-10T06:03:17;14.60;;;9.70;;
61200;SDS011;47065;52.898;6.992;2023-05-10T06:05:43;13.88;;;9.55;;
61200;SDS011;47065;52.898;6.992;2023-05-10T06:08:08;14.63;;;10.00;;
61200;SDS011;47065;52.898;6.992;2023-05-10T06:10:34;15.10;;;9.98;;
61200;SDS011;47065;52.898;6.992;2023-05-10T06:13:00;12.55;;;9.25;;
61200;SDS011;47065;52.898;6.992;2023-05-10T06:15:27;14.68;;;8.63;;
61200;SDS011;47065;52.898;6.992;2023-05-10T06:17:52;13.48;;;8.98;;
61200;SDS011;47065;52.898;6.992;2023-05-10T06:20:18;12.27;;;8.73;;
61200;SDS011;47065;52.898;6.992;2023-05-10T06:22:44;14.80;;;9.65;;
61200;SDS011;47065;52.898;6.992;2023-05-10T06:25:09;14.32;;;9.95;;
61200;SDS011;47065;52.898;6.992;2023-05-10T06:27:36;17.25;;;11.38;;
61200;SDS011;47065;52.898;6.992;2023-05-10T06:30:02;17.42;;;9.50;;
61200;SDS011;47065;52.898;6.992;2023-05-10T06:32:28;16.23;;;11.25;;
61200;SDS011;47065;52.898;6.992;2023-05-10T06:34:53;15.52;;;10.43;;
61200;SDS011;47065;52.898;6.992;2023-05-10T06:37:19;14.35;;;10.80;;
61200;SDS011;47065;52.898;6.992;2023-05-10T06:39:45;15.88;;;10.05;;
61200;SDS011;47065;52.898;6.992;2023-05-10T06:42:10;14.43;;;9.23;;
61200;SDS011;47065;52.898;6.992;2023-05-10T06:44:36;15.75;;;10.02;;
61200;SDS011;47065;52.898;6.992;2023-05-10T06:47:02;16.80;;;10.65;;
61200;SDS011;47065;52.898;6.992;2023-05-10T06:49:27;18.38;;;10.73;;
61200;SDS011;47065;52.898;6.992;2023-05-10T06:51:53;17.20;;;10.25;;
61200;SDS011;47065;52.898;6.992;2023-05-10T06:54:20;18.13;;;10.43;;
61200;SDS011;47065;52.898;6.992;2023-05-10T06:56:46;16.33;;;9.80;;
61200;SDS011;47065;52.898;6.992;2023-05-10T06:59:11;15.00;;;9.50;;
61200;SDS011;47065;52.898;6.992;2023-05-10T07:01:38;16.50;;;9.57;;
61200;SDS011;47065;52.898;6.992;2023-05-10T07:04:04;17.08;;;10.23;;
61200;SDS011;47065;52.898;6.992;2023-05-10T07:06:30;14.70;;;8.85;;
61200;SDS011;47065;52.898;6.992;2023-05-10T07:08:56;12.80;;;9.23;;
61200;SDS011;47065;52.898;6.992;2023-05-10T07:11:22;14.80;;;8.55;;
61200;SDS011;47065;52.898;6.992;2023-05-10T07:13:47;15.27;;;8.55;;
61200;SDS011;47065;52.898;6.992;2023-05-10T07:16:13;18.40;;;9.20;;
61200;SDS011;47065;52.898;6.992;2023-05-10T07:18:38;15.13;;;8.50;;
61200;SDS011;47065;52.898;6.992;2023-05-10T07:21:04;15.32;;;8.95;;
61200;SDS011;47065;52.898;6.992;2023-05-10T07:23:29;12.93;;;8.35;;
61200;SDS011;47065;52.898;6.992;2023-05-10T07:25:55;13.25;;;7.60;;
61200;SDS011;47065;52.898;6.992;2023-05-10T07:28:22;14.70;;;8.15;;
61200;SDS011;47065;52.898;6.992;2023-05-10T07:30:49;13.23;;;7.85;;
61200;SDS011;47065;52.898;6.992;2023-05-10T07:33:15;12.55;;;7.70;;
61200;SDS011;47065;52.898;6.992;2023-05-10T07:35:40;10.65;;;6.82;;
61200;SDS011;47065;52.898;6.992;2023-05-10T07:38:07;12.20;;;7.40;;
61200;SDS011;47065;52.898;6.992;2023-05-10T07:40:32;13.70;;;7.30;;
61200;SDS011;47065;52.898;6.992;2023-05-10T07:42:58;11.00;;;6.88;;
61200;SDS011;47065;52.898;6.992;2023-05-10T07:45:26;10.40;;;7.32;;
61200;SDS011;47065;52.898;6.992;2023-05-10T07:47:52;7.97;;;6.18;;
61200;SDS011;47065;52.898;6.992;2023-05-10T07:50:18;8.70;;;6.03;;
61200;SDS011;47065;52.898;6.992;2023-05-10T07:52:43;7.18;;;5.63;;
61200;SDS011;47065;52.898;6.992;2023-05-10T07:55:09;6.80;;;5.35;;
61200;SDS011;47065;52.898;6.992;2023-05-10T07:57:35;8.45;;;5.45;;
61200;SDS011;47065;52.898;6.992;2023-05-10T08:00:01;9.13;;;5.45;;
61200;SDS011;47065;52.898;6.992;2023-05-10T08:02:27;8.73;;;5.43;;
61200;SDS011;47065;52.898;6.992;2023-05-10T08:04:53;7.53;;;5.20;;
61200;SDS011;47065;52.898;6.992;2023-05-10T08:07:19;10.15;;;5.40;;
61200;SDS011;47065;52.898;6.992;2023-05-10T08:09:44;8.63;;;4.65;;
61200;SDS011;47065;52.898;6.992;2023-05-10T08:12:10;7.35;;;4.35;;
61200;SDS011;47065;52.898;6.992;2023-05-10T08:14:35;5.88;;;4.15;;
61200;SDS011;47065;52.898;6.992;2023-05-10T08:17:04;6.15;;;4.07;;
61200;SDS011;47065;52.898;6.992;2023-05-10T08:19:30;4.78;;;3.50;;
61200;SDS011;47065;52.898;6.992;2023-05-10T08:21:55;4.38;;;3.70;;
61200;SDS011;47065;52.898;6.992;2023-05-10T08:24:22;4.72;;;2.95;;
61200;SDS011;47065;52.898;6.992;2023-05-10T08:26:47;4.18;;;2.97;;
61200;SDS011;47065;52.898;6.992;2023-05-10T08:29:13;3.45;;;3.15;;
61200;SDS011;47065;52.898;6.992;2023-05-10T08:31:39;3.85;;;3.10;;
61200;SDS011;47065;52.898;6.992;2023-05-10T08:34:05;4.97;;;4.25;;
61200;SDS011;47065;52.898;6.992;2023-05-10T08:36:31;4.80;;;3.83;;
61200;SDS011;47065;52.898;6.992;2023-05-10T08:38:57;4.50;;;3.40;;
61200;SDS011;47065;52.898;6.992;2023-05-10T08:41:23;5.22;;;3.63;;
61200;SDS011;47065;52.898;6.992;2023-05-10T08:43:50;4.10;;;3.70;;
61200;SDS011;47065;52.898;6.992;2023-05-10T08:46:17;4.78;;;3.85;;
61200;SDS011;47065;52.898;6.992;2023-05-10T08:48:47;5.18;;;3.47;;
61200;SDS011;47065;52.898;6.992;2023-05-10T08:51:18;3.90;;;2.45;;
61200;SDS011;47065;52.898;6.992;2023-05-10T08:53:45;2.58;;;2.28;;
61200;SDS011;47065;52.898;6.992;2023-05-10T08:56:11;3.15;;;2.85;;
61200;SDS011;47065;52.898;6.992;2023-05-10T08:58:37;4.18;;;3.03;;
61200;SDS011;47065;52.898;6.992;2023-05-10T09:01:03;4.05;;;3.65;;
61200;SDS011;47065;52.898;6.992;2023-05-10T09:03:30;3.25;;;2.95;;
61200;SDS011;47065;52.898;6.992;2023-05-10T09:05:56;4.13;;;3.78;;
61200;SDS011;47065;52.898;6.992;2023-05-10T09:08:25;5.03;;;3.60;;
61200;SDS011;47065;52.898;6.992;2023-05-10T09:10:51;3.50;;;3.05;;
61200;SDS011;47065;52.898;6.992;2023-05-10T09:13:17;6.05;;;3.55;;
61200;SDS011;47065;52.898;6.992;2023-05-10T09:15:44;4.22;;;3.42;;
61200;SDS011;47065;52.898;6.992;2023-05-10T09:18:11;4.50;;;3.72;;
61200;SDS011;47065;52.898;6.992;2023-05-10T09:20:37;4.22;;;3.20;;
61200;SDS011;47065;52.898;6.992;2023-05-10T09:23:02;4.05;;;3.65;;
61200;SDS011;47065;52.898;6.992;2023-05-10T09:25:28;4.03;;;3.63;;
61200;SDS011;47065;52.898;6.992;2023-05-10T09:27:53;4.80;;;3.95;;
61200;SDS011;47065;52.898;6.992;2023-05-10T09:30:24;4.28;;;3.38;;
61200;SDS011;47065;52.898;6.992;2023-05-10T09:35:21;5.60;;;4.47;;
61200;SDS011;47065;52.898;6.992;2023-05-10T09:37:49;5.18;;;4.60;;
61200;SDS011;47065;52.898;6.992;2023-05-10T09:40:17;4.57;;;4.18;;
61200;SDS011;47065;52.898;6.992;2023-05-10T09:45:20;5.05;;;4.55;;
61200;SDS011;47065;52.898;6.992;2023-05-10T09:47:48;5.00;;;4.10;;
61200;SDS011;47065;52.898;6.992;2023-05-10T09:50:13;4.28;;;3.50;;
61200;SDS011;47065;52.898;6.992;2023-05-10T09:52:52;4.03;;;3.63;;
61200;SDS011;47065;52.898;6.992;2023-05-10T09:55:22;4.43;;;3.97;;
61200;SDS011;47065;52.898;6.992;2023-05-10T09:57:49;3.30;;;3.03;;
61200;SDS011;47065;52.898;6.992;2023-05-10T10:00:24;4.07;;;3.72;;
61200;SDS011;47065;52.898;6.992;2023-05-10T10:02:54;3.95;;;3.20;;
61200;SDS011;47065;52.898;6.992;2023-05-10T10:05:28;4.63;;;2.67;;
61200;SDS011;47065;52.898;6.992;2023-05-10T10:07:55;2.72;;;2.47;;
61200;SDS011;47065;52.898;6.992;2023-05-10T10:10:22;1.40;;;1.30;;
61200;SDS011;47065;52.898;6.992;2023-05-10T10:12:49;1.27;;;1.27;;
61200;SDS011;47065;52.898;6.992;2023-05-10T10:15:14;2.85;;;1.75;;
61200;SDS011;47065;52.898;6.992;2023-05-10T10:17:41;2.35;;;1.63;;
61200;SDS011;47065;52.898;6.992;2023-05-10T10:20:09;2.10;;;1.75;;
61200;SDS011;47065;52.898;6.992;2023-05-10T10:22:36;3.70;;;2.63;;
61200;SDS011;47065;52.898;6.992;2023-05-10T10:25:02;2.67;;;2.05;;
61200;SDS011;47065;52.898;6.992;2023-05-10T10:35:58;4.70;;;3.38;;
61200;SDS011;47065;52.898;6.992;2023-05-10T10:38:25;5.70;;;3.78;;
61200;SDS011;47065;52.898;6.992;2023-05-10T10:41:10;5.10;;;4.32;;
61200;SDS011;47065;52.898;6.992;2023-05-10T10:44:20;3.95;;;3.47;;
61200;SDS011;47065;52.898;6.992;2023-05-10T10:46:59;5.22;;;3.78;;
61200;SDS011;47065;52.898;6.992;2023-05-10T10:55:12;5.20;;;4.25;;
61200;SDS011;47065;52.898;6.992;2023-05-10T11:02:43;4.90;;;4.05;;
61200;SDS011;47065;52.898;6.992;2023-05-10T11:05:32;4.88;;;4.35;;
61200;SDS011;47065;52.898;6.992;2023-05-10T11:13:28;5.65;;;3.83;;
61200;SDS011;47065;52.898;6.992;2023-05-10T11:16:23;5.22;;;3.33;;
61200;SDS011;47065;52.898;6.992;2023-05-10T11:18:54;3.58;;;3.28;;
61200;SDS011;47065;52.898;6.992;2023-05-10T11:21:24;4.05;;;3.65;;
61200;SDS011;47065;52.898;6.992;2023-05-10T11:23:57;4.45;;;4.05;;
61200;SDS011;47065;52.898;6.992;2023-05-10T11:26:24;5.93;;;4.60;;
61200;SDS011;47065;52.898;6.992;2023-05-10T11:29:00;5.43;;;4.15;;
61200;SDS011;47065;52.898;6.992;2023-05-10T11:31:26;4.43;;;3.85;;
61200;SDS011;47065;52.898;6.992;2023-05-10T11:33:53;5.25;;;4.75;;
61200;SDS011;47065;52.898;6.992;2023-05-10T11:36:26;5.70;;;4.13;;
61200;SDS011;47065;52.898;6.992;2023-05-10T11:38:53;5.13;;;3.85;;
61200;SDS011;47065;52.898;6.992;2023-05-10T11:41:20;5.10;;;4.68;;
61200;SDS011;47065;52.898;6.992;2023-05-10T11:43:47;4.95;;;4.53;;
61200;SDS011;47065;52.898;6.992;2023-05-10T11:46:15;5.38;;;3.53;;
61200;SDS011;47065;52.898;6.992;2023-05-10T11:48:42;4.50;;;4.10;;
61200;SDS011;47065;52.898;6.992;2023-05-10T11:51:08;5.68;;;4.50;;
61200;SDS011;47065;52.898;6.992;2023-05-10T11:53:35;4.80;;;4.20;;
61200;SDS011;47065;52.898;6.992;2023-05-10T11:56:07;5.32;;;3.78;;
61200;SDS011;47065;52.898;6.992;2023-05-10T11:58:36;5.53;;;3.30;;
61200;SDS011;47065;52.898;6.992;2023-05-10T12:01:04;8.38;;;4.75;;
61200;SDS011;47065;52.898;6.992;2023-05-10T12:03:31;6.85;;;4.63;;
61200;SDS011;47065;52.898;6.992;2023-05-10T12:05:57;6.45;;;4.13;;
61200;SDS011;47065;52.898;6.992;2023-05-10T12:08:24;5.63;;;4.82;;
61200;SDS011;47065;52.898;6.992;2023-05-10T12:10:51;7.15;;;4.10;;
61200;SDS011;47065;52.898;6.992;2023-05-10T12:13:19;5.40;;;4.03;;
61200;SDS011;47065;52.898;6.992;2023-05-10T12:15:45;3.92;;;3.63;;
61200;SDS011;47065;52.898;6.992;2023-05-10T12:18:11;4.93;;;3.92;;
61200;SDS011;47065;52.898;6.992;2023-05-10T12:20:38;3.58;;;3.25;;
61200;SDS011;47065;52.898;6.992;2023-05-10T12:23:05;4.28;;;3.42;;
61200;SDS011;47065;52.898;6.992;2023-05-10T12:25:34;5.47;;;3.33;;
61200;SDS011;47065;52.898;6.992;2023-05-10T12:28:02;4.93;;;3.60;;
61200;SDS011;47065;52.898;6.992;2023-05-10T12:30:31;6.90;;;4.35;;
61200;SDS011;47065;52.898;6.992;2023-05-10T12:33:08;5.03;;;3.47;;
61200;SDS011;47065;52.898;6.992;2023-05-10T12:35:48;6.43;;;3.67;;
61200;SDS011;47065;52.898;6.992;2023-05-10T12:38:26;8.57;;;3.58;;
61200;SDS011;47065;52.898;6.992;2023-05-10T12:40:54;5.97;;;3.95;;
61200;SDS011;47065;52.898;6.992;2023-05-10T12:43:21;5.40;;;3.65;;
61200;SDS011;47065;52.898;6.992;2023-05-10T12:45:47;3.88;;;3.47;;
61200;SDS011;47065;52.898;6.992;2023-05-10T12:48:14;3.63;;;3.33;;
61200;SDS011;47065;52.898;6.992;2023-05-10T12:50:40;4.65;;;3.00;;
61200;SDS011;47065;52.898;6.992;2023-05-10T12:53:05;4.50;;;3.60;;
61200;SDS011;47065;52.898;6.992;2023-05-10T12:55:31;5.05;;;4.03;;
61200;SDS011;47065;52.898;6.992;2023-05-10T12:57:57;6.63;;;5.20;;
61200;SDS011;47065;52.898;6.992;2023-05-10T13:00:22;4.63;;;4.07;;
61200;SDS011;47065;52.898;6.992;2023-05-10T13:02:48;6.55;;;4.57;;
61200;SDS011;47065;52.898;6.992;2023-05-10T13:05:14;7.05;;;4.68;;
61200;SDS011;47065;52.898;6.992;2023-05-10T13:07:39;5.03;;;4.53;;
61200;SDS011;47065;52.898;6.992;2023-05-10T13:10:05;5.38;;;4.30;;
61200;SDS011;47065;52.898;6.992;2023-05-10T13:12:32;8.60;;;4.95;;
61200;SDS011;47065;52.898;6.992;2023-05-10T13:14:57;5.95;;;4.50;;
61200;SDS011;47065;52.898;6.992;2023-05-10T13:17:25;7.55;;;5.57;;
61200;SDS011;47065;52.898;6.992;2023-05-10T13:19:50;6.50;;;3.85;;
61200;SDS011;47065;52.898;6.992;2023-05-10T13:22:16;4.97;;;3.70;;
61200;SDS011;47065;52.898;6.992;2023-05-10T13:24:42;4.30;;;3.88;;
61200;SDS011;47065;52.898;6.992;2023-05-10T13:27:07;4.10;;;3.42;;
61200;SDS011;47065;52.898;6.992;2023-05-10T13:29:33;7.15;;;4.95;;
61200;SDS011;47065;52.898;6.992;2023-05-10T13:31:59;5.85;;;4.63;;
61200;SDS011;47065;52.898;6.992;2023-05-10T13:34:24;7.03;;;4.95;;
61200;SDS011;47065;52.898;6.992;2023-05-10T13:36:50;7.18;;;5.13;;
61200;SDS011;47065;52.898;6.992;2023-05-10T13:39:16;7.22;;;4.93;;
61200;SDS011;47065;52.898;6.992;2023-05-10T13:41:41;8.90;;;6.13;;
61200;SDS011;47065;52.898;6.992;2023-05-10T13:44:07;10.02;;;6.30;;
61200;SDS011;47065;52.898;6.992;2023-05-10T13:46:33;7.78;;;5.65;;
61200;SDS011;47065;52.898;6.992;2023-05-10T13:48:58;8.45;;;4.72;;
61200;SDS011;47065;52.898;6.992;2023-05-10T13:51:24;7.07;;;5.25;;
61200;SDS011;47065;52.898;6.992;2023-05-10T13:53:50;6.40;;;4.80;;
61200;SDS011;47065;52.898;6.992;2023-05-10T13:56:15;9.48;;;5.47;;
61200;SDS011;47065;52.898;6.992;2023-05-10T13:58:41;6.22;;;5.63;;
61200;SDS011;47065;52.898;6.992;2023-05-10T14:01:07;7.70;;;6.28;;
61200;SDS011;47065;52.898;6.992;2023-05-10T14:03:32;8.25;;;6.43;;
61200;SDS011;47065;52.898;6.992;2023-05-10T14:05:58;11.13;;;7.35;;
61200;SDS011;47065;52.898;6.992;2023-05-10T14:08:23;7.82;;;6.53;;
61200;SDS011;47065;52.898;6.992;2023-05-10T14:10:49;9.35;;;6.25;;
61200;SDS011;47065;52.898;6.992;2023-05-10T14:13:15;8.90;;;5.57;;
61200;SDS011;47065;52.898;6.992;2023-05-10T14:15:41;7.22;;;5.63;;
61200;SDS011;47065;52.898;6.992;2023-05-10T14:18:07;8.02;;;6.32;;
61200;SDS011;47065;52.898;6.992;2023-05-10T14:20:32;9.80;;;6.38;;
61200;SDS011;47065;52.898;6.992;2023-05-10T14:22:59;10.07;;;6.80;;
61200;SDS011;47065;52.898;6.992;2023-05-10T14:25:25;10.70;;;6.40;;
61200;SDS011;47065;52.898;6.992;2023-05-10T14:27:50;8.23;;;5.55;;
61200;SDS011;47065;52.898;6.992;2023-05-10T14:30:19;12.05;;;7.00;;
61200;SDS011;47065;52.898;6.992;2023-05-10T14:32:45;8.93;;;6.25;;
61200;SDS011;47065;52.898;6.992;2023-05-10T14:35:11;9.45;;;6.35;;
61200;SDS011;47065;52.898;6.992;2023-05-10T14:37:37;8.77;;;6.68;;
61200;SDS011;47065;52.898;6.992;2023-05-10T14:40:03;10.02;;;6.65;;
61200;SDS011;47065;52.898;6.992;2023-05-10T14:42:29;6.18;;;5.38;;
61200;SDS011;47065;52.898;6.992;2023-05-10T14:44:56;9.20;;;5.78;;
61200;SDS011;47065;52.898;6.992;2023-05-10T14:47:22;9.35;;;6.25;;
61200;SDS011;47065;52.898;6.992;2023-05-10T14:49:47;9.48;;;6.40;;
61200;SDS011;47065;52.898;6.992;2023-05-10T14:52:13;9.63;;;5.93;;
61200;SDS011;47065;52.898;6.992;2023-05-10T14:54:39;9.07;;;5.57;;
61200;SDS011;47065;52.898;6.992;2023-05-10T14:57:05;8.10;;;6.18;;
61200;SDS011;47065;52.898;6.992;2023-05-10T14:59:31;9.02;;;6.35;;
61200;SDS011;47065;52.898;6.992;2023-05-10T15:01:57;6.85;;;4.80;;
61200;SDS011;47065;52.898;6.992;2023-05-10T15:04:23;8.35;;;5.47;;
61200;SDS011;47065;52.898;6.992;2023-05-10T15:06:49;6.65;;;5.35;;
61200;SDS011;47065;52.898;6.992;2023-05-10T15:09:15;8.98;;;4.70;;
61200;SDS011;47065;52.898;6.992;2023-05-10T15:11:41;6.53;;;4.82;;
61200;SDS011;47065;52.898;6.992;2023-05-10T15:14:07;6.50;;;5.07;;
61200;SDS011;47065;52.898;6.992;2023-05-10T15:16:32;7.45;;;5.20;;
61200;SDS011;47065;52.898;6.992;2023-05-10T15:18:58;9.13;;;4.63;;
61200;SDS011;47065;52.898;6.992;2023-05-10T15:21:23;8.45;;;5.32;;
61200;SDS011;47065;52.898;6.992;2023-05-10T15:23:49;9.18;;;5.10;;
61200;SDS011;47065;52.898;6.992;2023-05-10T15:26:15;8.00;;;5.10;;